Time,TemperatureF,DewpointF,PressureIn,WindDirection,WindDirectionDegrees,WindSpeedMPH,WindSpeedGustMPH,Humidity,HourlyPrecipIn,Conditions,Clouds,dailyrainin,SoftwareType,DateUTC
2013-08-19 00:02:00,79.0,58.0,29.99,North,0,0.0,0.0,48,0.00,,,0.00,,2013-08-19 05:02:00,
2013-08-19 00:11:00,79.0,58.0,29.99,North,0,0.0,0.0,48,0.00,,,0.00,,2013-08-19 05:11:00,
2013-08-19 00:52:00,79.0,56.0,29.98,North,0,0.0,0.0,45,0.00,,,0.00,,2013-08-19 05:52:00,
2013-08-19 01:02:00,79.0,56.0,29.98,North,0,0.0,0.0,45,0.00,,,0.00,,2013-08-19 06:02:00,
2013-08-19 01:11:00,79.0,56.0,29.98,North,0,0.0,0.0,45,0.00,,,0.00,,2013-08-19 06:11:00,
2013-08-19 01:42:00,76.0,59.0,29.98,North,0,0.0,0.0,56,0.00,,,0.00,,2013-08-19 06:42:00,
2013-08-19 01:52:00,76.0,59.0,29.98,North,0,0.0,0.0,56,0.00,,,0.00,,2013-08-19 06:52:00,
2013-08-19 02:01:00,76.0,59.0,29.98,North,0,0.0,0.0,56,0.00,,,0.00,,2013-08-19 07:01:00,
2013-08-19 03:22:00,71.0,60.0,29.98,North,0,0.0,0.0,68,0.00,,,0.00,,2013-08-19 08:22:00,
2013-08-19 03:32:00,71.0,60.0,29.98,North,0,0.0,0.0,68,0.00,,,0.00,,2013-08-19 08:32:00,
2013-08-19 03:43:00,72.0,62.0,29.98,North,0,0.0,0.0,72,0.00,,,0.00,,2013-08-19 08:43:00,
2013-08-19 03:52:00,72.0,62.0,29.98,North,0,0.0,0.0,72,0.00,,,0.00,,2013-08-19 08:52:00,
2013-08-19 04:11:00,72.0,62.0,29.98,North,0,0.0,0.0,72,0.00,,,0.00,,2013-08-19 09:11:00,
2013-08-19 04:22:00,72.0,62.0,29.98,North,0,0.0,0.0,72,0.00,,,0.00,,2013-08-19 09:22:00,
2013-08-19 04:33:00,72.0,62.0,29.98,North,0,0.0,0.0,72,0.00,,,0.00,,2013-08-19 09:33:00,
2013-08-19 05:12:00,72.0,62.0,29.98,North,0,0.0,0.0,72,0.00,,,0.00,,2013-08-19 10:12:00,
2013-08-19 05:23:00,72.0,62.0,29.98,North,0,0.0,0.0,72,0.00,,,0.00,,2013-08-19 10:23:00,
2013-08-19 05:33:00,72.0,62.0,29.98,North,0,0.0,0.0,72,0.00,,,0.00,,2013-08-19 10:33:00,
2013-08-19 05:52:00,69.0,61.0,29.98,North,0,0.0,0.0,76,0.00,,,0.00,,2013-08-19 10:52:00,
2013-08-19 06:02:00,69.0,61.0,29.98,North,0,0.0,0.0,76,0.00,,,0.00,,2013-08-19 11:02:00,
2013-08-19 06:22:00,69.0,61.0,29.98,North,0,0.0,0.0,77,0.00,,,0.00,,2013-08-19 11:22:00,
2013-08-19 06:33:00,69.0,61.0,29.98,North,0,0.0,0.0,77,0.00,,,0.00,,2013-08-19 11:33:00,
2013-08-19 06:52:00,68.0,62.0,29.98,North,0,0.0,0.0,80,0.00,,,0.00,,2013-08-19 11:52:00,
2013-08-19 07:11:00,68.0,62.0,29.99,North,0,0.0,0.0,80,0.00,,,0.00,,2013-08-19 12:11:00,
2013-08-19 07:21:00,68.0,62.0,29.99,North,0,0.0,0.0,80,0.00,,,0.00,,2013-08-19 12:21:00,
2013-08-19 07:32:00,68.0,62.0,29.99,North,0,0.0,0.0,80,0.00,,,0.00,,2013-08-19 12:32:00,
2013-08-19 08:22:00,69.0,63.0,30.01,North,0,0.0,0.0,82,0.00,,,0.00,,2013-08-19 13:22:00,
2013-08-19 08:52:00,72.0,66.0,30.01,North,0,0.0,0.0,81,0.00,,,0.00,,2013-08-19 13:52:00,
2013-08-19 09:11:00,73.0,65.0,30.01,North,0,0.0,0.0,77,0.00,,,0.00,,2013-08-19 14:11:00,
2013-08-19 09:21:00,73.0,65.0,30.01,North,0,0.0,0.0,77,0.00,,,0.00,,2013-08-19 14:21:00,
2013-08-19 09:32:00,73.0,65.0,30.01,North,0,0.0,0.0,77,0.00,,,0.00,,2013-08-19 14:32:00,
2013-08-19 11:23:00,88.0,64.0,30.04,North,0,0.0,0.0,45,0.00,,,0.00,,2013-08-19 16:23:00,
2013-08-19 11:33:00,88.0,64.0,30.04,North,0,0.0,0.0,45,0.00,,,0.00,,2013-08-19 16:33:00,
2013-08-19 13:50:00,-999.0,-99.9,30.02,North,0,0.0,0.0,36,0.00,,,0.00,,2013-08-19 18:50:00,
2013-08-19 14:00:00,-999.0,-99.9,30.02,North,0,0.0,0.0,36,0.00,,,0.00,,2013-08-19 19:00:00,
2013-08-19 14:30:00,-999.0,-99.9,30.02,North,0,0.0,0.0,36,0.00,,,0.00,,2013-08-19 19:30:00,
2013-08-19 16:00:00,-999.0,-99.9,29.97,North,0,0.0,0.0,-999,-99.99,,,-99.99,,2013-08-19 21:00:00,
2013-08-19 17:15:00,96.0,65.0,29.94,North,0,0.0,0.0,37,0.00,,,0.00,,2013-08-19 22:15:00,
2013-08-19 17:55:00,96.0,65.0,29.94,North,0,0.0,0.0,37,0.00,,,0.00,,2013-08-19 22:55:00,
2013-08-19 18:05:00,96.0,65.0,29.94,North,0,0.0,0.0,37,0.00,,,0.00,,2013-08-19 23:05:00,
2013-08-19 19:21:00,89.0,62.0,29.91,North,0,0.0,0.0,41,0.00,,,0.00,,2013-08-20 00:21:00,
2013-08-19 19:42:00,91.0,64.0,29.91,North,0,0.0,0.0,41,0.00,,,0.00,,2013-08-20 00:42:00,
2013-08-19 19:52:00,89.0,62.0,29.91,North,0,0.0,0.0,41,0.00,,,0.00,,2013-08-20 00:52:00,
2013-08-19 20:03:00,89.0,62.0,29.91,North,0,0.0,0.0,41,0.00,,,0.00,,2013-08-20 01:03:00,
2013-08-19 20:11:00,89.0,62.0,29.91,North,0,0.0,0.0,41,0.00,,,0.00,,2013-08-20 01:11:00,
2013-08-19 23:53:00,75.0,61.0,29.95,North,0,0.0,0.0,61,0.00,,,0.00,,2013-08-20 04:53:00,